Time;durP1;ratioP1;P1;durP2;ratioP2;P2;SDS_P1;SDS_P2;PMS_P1;PMS_P2;Temp;Humidity;BMP_temperature;BMP_pressure;BME280_temperature;BME280_humidity;BME280_pressure;Samples;Min_cycle;Max_cycle;Signal;HPM_P1;HPM_P2
2023/12/01 00:00:52;;;;;;;0.10;0.10;;;;;;;-2.16;100.00;99326.38;4825732;29;20384;-77
2023/12/01 00:03:17;;;;;;;0.10;0.10;;;;;;;-2.20;100.00;99320.63;4825308;29;20374;-77
2023/12/01 00:05:43;;;;;;;0.10;0.10;;;;;;;-2.25;100.00;99317.72;4853247;29;20033;-76
2023/12/01 00:08:09;;;;;;;0.00;0.00;;;;;;;-2.23;100.00;99315.69;4855984;29;20543;-77
2023/12/01 00:10:37;;;;;;;0.10;0.10;;;;;;;-2.30;100.00;99312.19;4843432;29;20025;-76
2023/12/01 00:13:02;;;;;;;0.10;0.10;;;;;;;-2.19;100.00;99326.78;4847224;29;20112;-77
2023/12/01 00:15:27;;;;;;;0.10;0.10;;;;;;;-2.23;100.00;99312.16;4844957;29;20066;-76
2023/12/01 00:17:56;;;;;;;0.10;0.10;;;;;;;-2.24;100.00;99314.03;4865118;29;20124;-76
2023/12/01 00:20:21;;;;;;;0.10;0.10;;;;;;;-2.13;100.00;99325.97;4850774;29;20196;-73
2023/12/01 00:22:47;;;;;;;0.10;0.10;;;;;;;-2.19;100.00;99322.28;4871132;29;20125;-76
2023/12/01 00:25:15;;;;;;;0.00;0.00;;;;;;;-2.10;100.00;99336.25;4817771;29;20048;-74
2023/12/01 00:27:41;;;;;;;0.10;0.10;;;;;;;-2.16;100.00;99326.38;4857721;29;20036;-74
2023/12/01 00:30:07;;;;;;;0.10;0.10;;;;;;;-2.17;100.00;99332.78;4847789;29;21407;-75
2023/12/01 00:32:32;;;;;;;0.10;0.10;;;;;;;-2.18;100.00;99339.16;4849614;29;20037;-75
2023/12/01 00:35:01;;;;;;;0.10;0.10;;;;;;;-2.18;100.00;99349.88;4867148;29;20033;-74
2023/12/01 00:37:30;;;;;;;0.00;0.00;;;;;;;-2.33;100.00;99332.16;4873284;29;20029;-74
2023/12/01 00:39:55;;;;;;;0.10;0.10;;;;;;;-2.34;100.00;99341.22;4843531;29;20151;-75
2023/12/01 00:42:21;;;;;;;0.00;0.00;;;;;;;-2.33;100.00;99348.25;4865935;29;20507;-72
2023/12/01 00:44:46;;;;;;;0.10;0.10;;;;;;;-2.36;100.00;99356.69;4849017;29;20037;-73
2023/12/01 00:47:12;;;;;;;0.10;0.10;;;;;;;-2.39;100.00;99350.94;4828397;29;20065;-74
2023/12/01 00:49:37;;;;;;;0.10;0.10;;;;;;;-2.44;100.00;99340.00;4838434;29;20041;-73
2023/12/01 00:52:04;;;;;;;0.10;0.10;;;;;;;-2.42;100.00;99349.50;4838496;29;20025;-74
2023/12/01 00:54:29;;;;;;;0.00;0.00;;;;;;;-2.45;100.00;99349.91;4839165;29;20081;-74
2023/12/01 00:56:55;;;;;;;0.10;0.10;;;;;;;-2.40;100.00;99344.75;4818508;29;20041;-74
2023/12/01 00:59:20;;;;;;;0.10;0.10;;;;;;;-2.44;100.00;99345.38;4840873;29;20064;-74
2023/12/01 01:01:47;;;;;;;0.10;0.10;;;;;;;-2.36;100.00;99356.69;4835560;29;20124;-75
2023/12/01 01:04:12;;;;;;;0.00;0.00;;;;;;;-2.38;100.00;99356.09;4863430;29;20033;-74
2023/12/01 01:06:38;;;;;;;0.00;0.00;;;;;;;-2.37;100.00;99352.34;4866601;29;20138;-75
2023/12/01 01:09:04;;;;;;;0.10;0.10;;;;;;;-2.36;100.00;99353.19;4825373;29;20049;-76
2023/12/01 01:11:29;;;;;;;0.10;0.10;;;;;;;-2.35;100.00;99371.75;4869245;29;20055;-75
2023/12/01 01:13:56;;;;;;;0.10;0.10;;;;;;;-2.45;100.00;99357.94;4866179;29;20037;-74
2023/12/01 01:16:22;;;;;;;0.00;0.00;;;;;;;-2.43;100.00;99363.91;4867262;29;20080;-74
2023/12/01 01:18:47;;;;;;;0.10;0.10;;;;;;;-2.55;100.00;99344.16;4861051;29;20029;-73
2023/12/01 01:21:13;;;;;;;0.00;0.00;;;;;;;-2.45;100.00;99365.97;4857088;29;20029;-75
2023/12/01 01:23:38;;;;;;;0.00;0.00;;;;;;;-2.56;100.00;99342.50;4851887;29;20385;-74
2023/12/01 01:26:07;;;;;;;0.10;0.10;;;;;;;-2.50;100.00;99363.09;4830375;29;20029;-74
2023/12/01 01:28:32;;;;;;;0.00;0.00;;;;;;;-2.48;100.00;99369.06;4859831;29;20048;-75
2023/12/01 01:30:57;;;;;;;0.00;0.00;;;;;;;-2.57;100.00;99351.56;4830415;29;20303;-74
2023/12/01 01:33:23;;;;;;;0.08;0.08;;;;;;;-2.48;100.00;99366.41;4855089;29;20488;-74
2023/12/01 01:35:48;;;;;;;0.10;0.10;;;;;;;-2.48;100.00;99372.56;4871799;29;20057;-73
2023/12/01 01:38:14;;;;;;;0.10;0.10;;;;;;;-2.54;100.00;99369.88;4860459;29;20107;-74
2023/12/01 01:40:39;;;;;;;0.10;0.10;;;;;;;-2.60;100.00;99368.03;4856494;29;20036;-74
2023/12/01 01:43:04;;;;;;;0.00;0.00;;;;;;;-2.80;100.00;99336.75;4861029;29;20032;-74
2023/12/01 01:45:30;;;;;;;0.10;0.10;;;;;;;-2.66;100.00;99365.16;4846529;29;20392;-74
2023/12/01 01:47:55;;;;;;;0.00;0.00;;;;;;;-2.71;100.00;99361.44;4844590;29;20492;-75
2023/12/01 01:50:29;;;;;;;0.00;0.00;;;;;;;-2.72;100.00;99371.31;4841330;29;20239;-74
2023/12/01 01:52:55;;;;;;;0.10;0.10;;;;;;;-2.63;100.00;99379.97;4823506;29;20065;-74
2023/12/01 01:55:21;;;;;;;0.10;0.10;;;;;;;-2.67;100.00;99368.84;4828354;29;20101;-75
2023/12/01 01:57:48;;;;;;;0.10;0.10;;;;;;;-2.72;100.00;99365.97;4843215;29;20116;-75
2023/12/01 02:00:16;;;;;;;0.00;0.00;;;;;;;-2.82;100.00;99355.69;4863496;29;20025;-74
2023/12/01 02:02:43;;;;;;;0.10;0.10;;;;;;;-2.71;100.00;99367.63;4838647;29;21436;-73
2023/12/01 02:05:13;;;;;;;0.10;0.10;;;;;;;-2.68;100.00;99372.56;4853527;29;20432;-74
2023/12/01 02:07:39;;;;;;;0.10;0.10;;;;;;;-2.74;100.00;99377.91;4837190;29;20388;-74
2023/12/01 02:10:05;;;;;;;0.10;0.10;;;;;;;-2.89;100.00;99346.81;4855746;29;20041;-74
2023/12/01 02:12:31;;;;;;;0.10;0.10;;;;;;;-2.75;100.00;99365.56;4822305;29;20393;-74
2023/12/01 02:14:56;;;;;;;0.10;0.10;;;;;;;-2.82;100.00;99357.50;4842127;29;20033;-73
2023/12/01 02:17:22;;;;;;;0.00;0.00;;;;;;;-2.69;100.00;99384.28;4836292;29;20081;-75
2023/12/01 02:19:51;;;;;;;0.10;0.10;;;;;;;-2.86;100.00;99364.28;4877885;29;20475;-74
2023/12/01 02:22:16;;;;;;;0.10;0.10;;;;;;;-2.89;100.00;99365.56;4839885;29;20037;-74
2023/12/01 02:24:42;;;;;;;0.10;0.10;;;;;;;-2.91;100.00;99359.56;4841485;29;20388;-74
2023/12/01 02:27:07;;;;;;;0.10;0.10;;;;;;;-2.84;100.00;99359.59;4845678;29;20041;-75
2023/12/01 02:29:33;;;;;;;0.00;0.00;;;;;;;-2.71;100.00;99391.69;4860732;29;20029;-73
2023/12/01 02:31:58;;;;;;;0.10;0.10;;;;;;;-2.81;100.00;99377.91;4866622;29;20435;-72
2023/12/01 02:34:24;;;;;;;0.10;0.10;;;;;;;-2.85;100.00;99365.97;4866295;29;20498;-74
2023/12/01 02:36:49;;;;;;;0.00;0.00;;;;;;;-2.89;100.00;99365.56;4833714;29;20069;-73
2023/12/01 02:39:15;;;;;;;0.10;0.10;;;;;;;-2.91;100.00;99369.44;4841896;29;20033;-73
2023/12/01 02:41:40;;;;;;;0.10;0.10;;;;;;;-2.92;100.00;99381.19;4845418;29;20033;-72
2023/12/01 02:44:05;;;;;;;0.10;0.10;;;;;;;-2.88;100.00;99377.06;4846560;29;20037;-74
2023/12/01 02:46:31;;;;;;;0.10;0.10;;;;;;;-2.88;100.00;99372.53;4840526;29;20084;-73
2023/12/01 02:48:57;;;;;;;0.10;0.10;;;;;;;-2.92;100.00;99359.78;4854406;29;20057;-74
2023/12/01 02:51:24;;;;;;;0.00;0.00;;;;;;;-2.81;100.00;99375.22;4848915;29;20064;-73
2023/12/01 02:53:49;;;;;;;0.00;0.00;;;;;;;-2.76;100.00;99375.44;4841989;29;20052;-73
2023/12/01 02:56:16;;;;;;;0.10;0.10;;;;;;;-2.86;100.00;99365.13;4842025;29;20467;-73
2023/12/01 02:58:41;;;;;;;0.00;0.00;;;;;;;-2.60;100.00;99400.16;4870849;29;20033;-73
2023/12/01 03:01:07;;;;;;;0.00;0.00;;;;;;;-2.59;100.00;99391.09;4844402;29;20025;-73
2023/12/01 03:03:32;;;;;;;0.10;0.10;;;;;;;-2.81;100.00;99356.50;4857607;29;20040;-74
2023/12/01 03:05:58;;;;;;;0.10;0.10;;;;;;;-2.73;100.00;99380.41;4838228;29;20030;-74
2023/12/01 03:08:23;;;;;;;0.00;0.00;;;;;;;-2.69;100.00;99381.59;4854268;29;20033;-74
2023/12/01 03:10:48;;;;;;;0.10;0.10;;;;;;;-2.73;100.00;99383.06;4865320;29;20029;-74
2023/12/01 03:13:14;;;;;;;0.10;0.10;;;;;;;-2.74;100.00;99381.41;4858003;29;20093;-73
2023/12/01 03:15:49;;;;;;;0.10;0.10;;;;;;;-2.78;100.00;99377.50;4844707;29;20033;-75
2023/12/01 03:18:15;;;;;;;0.00;0.00;;;;;;;-2.89;100.00;99370.06;4857483;29;20056;-74
2023/12/01 03:20:41;;;;;;;0.10;0.10;;;;;;;-2.84;100.00;99370.28;4856526;29;20469;-73
2023/12/01 03:23:06;;;;;;;0.10;0.10;;;;;;;-2.85;100.00;99382.00;4836713;29;20032;-76
2023/12/01 03:25:33;;;;;;;0.10;0.10;;;;;;;-3.01;100.00;99373.34;4833699;29;20108;-74
2023/12/01 03:27:58;;;;;;;0.00;0.00;;;;;;;-3.06;100.00;99370.44;4876562;29;20013;-74
2023/12/01 03:30:26;;;;;;;0.10;0.10;;;;;;;-2.93;100.00;99384.91;4841320;29;20384;-74
2023/12/01 03:32:53;;;;;;;0.10;0.10;;;;;;;-2.97;100.00;99378.31;4868105;29;20373;-74
2023/12/01 03:35:20;;;;;;;0.10;0.10;;;;;;;-2.92;100.00;99343.72;4848553;29;20056;-74
2023/12/01 03:37:47;;;;;;;0.00;0.00;;;;;;;-2.81;100.00;99378.72;4874079;29;20160;-77
2023/12/01 03:40:15;;;;;;;0.10;0.10;;;;;;;-3.05;100.00;99366.75;4848423;29;20025;-75
2023/12/01 03:42:46;;;;;;;0.10;0.10;;;;;;;-3.18;100.00;99364.88;4849428;29;20040;-74
2023/12/01 03:45:23;;;;;;;0.10;0.10;;;;;;;-3.25;100.00;99357.88;4857476;29;20025;-74
2023/12/01 03:47:53;;;;;;;0.00;0.00;;;;;;;-3.18;100.00;99372.91;4868377;29;20021;-77
2023/12/01 03:50:19;;;;;;;0.10;0.10;;;;;;;-3.13;100.00;99382.19;4863635;29;20060;-77
2023/12/01 03:52:46;;;;;;;0.00;0.00;;;;;;;-3.20;100.00;99374.13;4862712;29;20093;-78
2023/12/01 03:55:13;;;;;;;0.00;0.00;;;;;;;-3.22;100.00;99368.97;4844119;29;20059;-78
2023/12/01 03:57:41;;;;;;;0.03;0.03;;;;;;;-3.12;100.00;99381.97;4868170;29;20041;-78
2023/12/01 04:00:11;;;;;;;0.00;0.00;;;;;;;-3.05;100.00;99385.47;4850143;29;20037;-77
2023/12/01 04:02:43;;;;;;;0.10;0.10;;;;;;;-3.11;100.00;99372.94;4862165;29;20036;-78
2023/12/01 04:05:16;;;;;;;0.10;0.10;;;;;;;-3.28;100.00;99367.13;4854115;29;20033;-77
2023/12/01 04:07:44;;;;;;;0.10;0.10;;;;;;;-3.35;100.00;99356.38;4873246;29;20120;-78
2023/12/01 04:10:10;;;;;;;0.10;0.10;;;;;;;-3.14;100.00;99389.34;4859414;29;20531;-78
2023/12/01 04:12:45;;;;;;;0.10;0.10;;;;;;;-3.19;100.00;99381.94;4842711;29;20124;-77
2023/12/01 04:15:15;;;;;;;0.10;0.10;;;;;;;-3.24;100.00;99372.88;4853417;29;20030;-81
2023/12/01 04:17:49;;;;;;;0.03;0.03;;;;;;;-3.14;100.00;99384.00;4869561;29;20021;-78
2023/12/01 04:20:25;;;;;;;0.10;0.10;;;;;;;-3.08;100.00;99398.44;4839971;29;20117;-78
2023/12/01 04:22:52;;;;;;;0.00;0.00;;;;;;;-3.16;100.00;99383.41;4877371;29;20029;-80
2023/12/01 04:25:18;;;;;;;0.10;0.10;;;;;;;-3.09;100.00;99407.50;4858812;29;21338;-79
2023/12/01 04:27:45;;;;;;;0.10;0.10;;;;;;;-3.21;100.00;99399.22;4873078;29;20428;-79
2023/12/01 04:30:14;;;;;;;0.00;0.00;;;;;;;-3.28;100.00;99390.38;4857597;29;20036;-79
2023/12/01 04:32:48;;;;;;;0.10;0.10;;;;;;;-3.56;100.00;99345.88;4858349;29;20540;-78
2023/12/01 04:35:15;;;;;;;0.10;0.10;;;;;;;-3.34;100.00;99382.09;4863710;29;20060;-78
2023/12/01 04:37:46;;;;;;;0.10;0.10;;;;;;;-3.23;100.00;99390.56;4871754;29;20164;-79
2023/12/01 04:40:15;;;;;;;0.10;0.10;;;;;;;-3.20;100.00;99391.00;4855072;29;20443;-78
2023/12/01 04:42:51;;;;;;;0.00;0.00;;;;;;;-3.13;100.00;99400.91;4832040;29;20100;-77
2023/12/01 04:45:19;;;;;;;0.00;0.00;;;;;;;-3.09;100.00;99408.31;4862338;29;20828;-80
2023/12/01 04:47:46;;;;;;;0.10;0.10;;;;;;;-3.16;100.00;99399.44;4851780;29;20757;-80
2023/12/01 04:50:14;;;;;;;0.10;0.10;;;;;;;-3.12;100.00;99416.75;4837582;29;20133;-80
2023/12/01 04:52:41;;;;;;;0.10;0.10;;;;;;;-3.28;100.00;99393.03;4854786;29;20036;-78
2023/12/01 04:55:08;;;;;;;0.10;0.10;;;;;;;-3.23;100.00;99411.97;4848280;29;20097;-78
2023/12/01 04:57:36;;;;;;;0.10;0.10;;;;;;;-3.51;100.00;99373.59;4869565;29;20021;-80
2023/12/01 05:00:18;;;;;;;0.00;0.00;;;;;;;-3.33;100.00;99407.84;4848999;29;20037;-78
2023/12/01 05:02:47;;;;;;;0.10;0.10;;;;;;;-3.48;100.00;99387.63;4842416;29;20045;-77
2023/12/01 05:05:15;;;;;;;0.10;0.10;;;;;;;-3.40;100.00;99409.66;4848228;29;20048;-76
2023/12/01 05:07:40;;;;;;;0.10;0.10;;;;;;;-3.42;100.00;99409.00;4865725;29;20491;-78
2023/12/01 05:10:14;;;;;;;0.10;0.10;;;;;;;-3.43;100.00;99411.88;4838716;29;20041;-80
2023/12/01 05:12:45;;;;;;;0.10;0.10;;;;;;;-3.65;100.00;99387.13;4861838;29;20028;-78
2023/12/01 05:15:38;;;;;;;0.00;0.00;;;;;;;-3.77;100.00;99379.66;4845969;29;20433;-78
2023/12/01 05:18:06;;;;;;;0.10;0.10;;;;;;;-3.81;100.00;99373.09;4868939;29;20504;-79
2023/12/01 05:20:32;;;;;;;0.10;0.10;;;;;;;-3.57;100.00;99411.84;4864258;29;20033;-78
2023/12/01 05:23:09;;;;;;;0.10;0.10;;;;;;;-3.61;100.00;99409.75;4849365;29;20033;-79
2023/12/01 05:25:36;;;;;;;0.00;0.00;;;;;;;-3.68;100.00;99399.03;4864947;29;20068;-78
2023/12/01 05:28:04;;;;;;;0.00;0.00;;;;;;;-3.57;100.00;99411.03;4872024;29;20021;-77
2023/12/01 05:30:43;;;;;;;0.10;0.10;;;;;;;-3.57;100.00;99403.81;4850370;29;20033;-77
2023/12/01 05:33:09;;;;;;;0.10;0.10;;;;;;;-3.53;100.00;99413.09;4844736;29;20037;-77
2023/12/01 05:35:38;;;;;;;0.10;0.10;;;;;;;-3.66;100.00;99393.47;4848059;29;20560;-78
2023/12/01 05:38:04;;;;;;;0.10;0.10;;;;;;;-3.66;100.00;99401.50;4846565;29;20100;-78
2023/12/01 05:40:34;;;;;;;0.10;0.10;;;;;;;-3.63;100.00;99409.16;4832871;29;20073;-78
2023/12/01 05:42:59;;;;;;;0.00;0.00;;;;;;;-3.72;100.00;99398.59;4866368;29;20540;-78
2023/12/01 05:45:26;;;;;;;0.10;0.10;;;;;;;-3.63;100.00;99414.50;4829335;29;20133;-79
2023/12/01 05:47:56;;;;;;;0.00;0.00;;;;;;;-3.66;100.00;99412.19;4870959;29;20052;-79
2023/12/01 05:50:32;;;;;;;0.10;0.10;;;;;;;-3.64;100.00;99410.97;4853521;29;20029;-79
2023/12/01 05:53:00;;;;;;;0.00;0.00;;;;;;;-3.67;100.00;99405.22;4858172;29;20052;-78
2023/12/01 05:55:28;;;;;;;0.00;0.00;;;;;;;-3.65;100.00;99411.16;4852713;29;20039;-78
2023/12/01 05:57:54;;;;;;;0.00;0.00;;;;;;;-3.64;100.00;99407.50;4832329;29;20468;-77
2023/12/01 06:00:22;;;;;;;0.10;0.10;;;;;;;-3.71;100.00;99404.78;4861790;29;20037;-76
2023/12/01 06:02:49;;;;;;;0.10;0.10;;;;;;;-3.74;100.00;99400.66;4839050;29;20065;-78
2023/12/01 06:05:16;;;;;;;0.00;0.00;;;;;;;-3.67;100.00;99422.06;4836582;29;20089;-78
2023/12/01 06:07:44;;;;;;;0.10;0.10;;;;;;;-3.67;100.00;99415.91;4851567;29;20024;-77
2023/12/01 06:10:11;;;;;;;0.00;0.00;;;;;;;-3.75;100.00;99411.53;4852201;29;20041;-78
2023/12/01 06:12:37;;;;;;;0.00;0.00;;;;;;;-3.92;100.00;99393.16;4850155;29;20029;-79
2023/12/01 06:15:07;;;;;;;0.10;0.10;;;;;;;-3.84;100.00;99405.56;4842871;29;20457;-78
2023/12/01 06:17:33;;;;;;;0.10;0.10;;;;;;;-3.83;100.00;99417.03;4863427;29;20449;-78
2023/12/01 06:19:59;;;;;;;0.10;0.10;;;;;;;-3.84;100.00;99413.56;4857495;29;20048;-78
2023/12/01 06:22:24;;;;;;;0.10;0.10;;;;;;;-3.82;100.00;99430.22;4828983;29;20484;-78
2023/12/01 06:24:49;;;;;;;0.10;0.10;;;;;;;-3.83;100.00;99425.88;4845110;29;20350;-77
2023/12/01 06:27:15;;;;;;;0.10;0.10;;;;;;;-3.78;100.00;99439.50;4846755;29;20512;-77
2023/12/01 06:29:41;;;;;;;0.00;0.00;;;;;;;-3.91;100.00;99420.72;4861723;29;20020;-77
2023/12/01 06:32:16;;;;;;;0.10;0.10;;;;;;;-3.98;100.00;99411.84;4855284;29;20044;-78
2023/12/01 06:34:41;;;;;;;0.10;0.10;;;;;;;-3.86;100.00;99434.28;4867059;29;20036;-79
2023/12/01 06:37:07;;;;;;;0.10;0.10;;;;;;;-3.86;100.00;99429.75;4838808;29;20046;-78
2023/12/01 06:39:35;;;;;;;0.10;0.10;;;;;;;-3.75;100.00;99447.09;4839693;29;20052;-78
2023/12/01 06:42:01;;;;;;;0.10;0.10;;;;;;;-3.61;100.00;99444.50;4836749;29;20029;-78
2023/12/01 06:44:26;;;;;;;0.10;0.10;;;;;;;-3.59;100.00;99440.63;4846212;29;20042;-78
2023/12/01 06:46:52;;;;;;;0.10;0.10;;;;;;;-3.59;100.00;99439.78;4860525;29;20033;-79
2023/12/01 06:49:19;;;;;;;0.10;0.10;;;;;;;-3.50;100.00;99457.31;4838128;29;20049;-77
2023/12/01 06:51:44;;;;;;;0.10;0.10;;;;;;;-3.56;100.00;99452.75;4851892;29;20026;-78
2023/12/01 06:54:10;;;;;;;0.10;0.10;;;;;;;-3.56;100.00;99450.09;4849782;29;20087;-77
2023/12/01 06:56:40;;;;;;;0.10;0.10;;;;;;;-3.59;100.00;99437.09;4862303;29;20037;-78
2023/12/01 06:59:08;;;;;;;0.10;0.10;;;;;;;-3.60;100.00;99443.50;4860180;29;20563;-78
2023/12/01 07:01:35;;;;;;;0.10;0.10;;;;;;;-3.43;100.00;99457.34;4852917;29;20120;-78
2023/12/01 07:04:07;;;;;;;0.10;0.10;;;;;;;-3.43;100.00;99460.84;4850102;29;20067;-78
2023/12/01 07:06:35;;;;;;;0.10;0.10;;;;;;;-3.37;100.00;99464.56;4817497;29;20120;-74
2023/12/01 07:09:01;;;;;;;0.10;0.10;;;;;;;-3.35;100.00;99462.53;4861170;29;20041;-73
2023/12/01 07:11:29;;;;;;;0.10;0.10;;;;;;;-3.32;100.00;99462.13;4834916;29;20033;-72
2023/12/01 07:13:55;;;;;;;0.00;0.00;;;;;;;-3.18;100.00;99463.00;4853717;29;20034;-75
2023/12/01 07:16:20;;;;;;;0.00;0.00;;;;;;;-3.18;100.00;99461.16;4855057;29;20080;-75
2023/12/01 07:18:46;;;;;;;0.10;0.10;;;;;;;-3.05;100.00;99479.09;4852230;29;21561;-75
2023/12/01 07:21:11;;;;;;;0.10;0.10;;;;;;;-2.91;100.00;99479.16;4841299;29;20060;-75
2023/12/01 07:23:37;;;;;;;0.10;0.10;;;;;;;-2.84;100.00;99480.81;4846644;29;20025;-73
2023/12/01 07:26:04;;;;;;;0.10;0.10;;;;;;;-2.97;100.00;99455.88;4839288;29;20061;-75
2023/12/01 07:28:30;;;;;;;0.00;0.00;;;;;;;-2.91;100.00;99479.16;4849926;29;20087;-75
2023/12/01 07:30:56;;;;;;;0.00;0.00;;;;;;;-2.90;100.00;99478.94;4830825;29;20065;-76
2023/12/01 07:33:22;;;;;;;0.00;0.00;;;;;;;-3.12;100.00;99462.22;4829456;29;20119;-75
2023/12/01 07:35:47;;;;;;;0.10;0.10;;;;;;;-3.02;100.00;99489.41;4833132;29;20054;-75
2023/12/01 07:38:15;;;;;;;0.00;0.00;;;;;;;-3.07;100.00;99493.69;4832822;29;20496;-75
2023/12/01 07:40:40;;;;;;;0.10;0.10;;;;;;;-3.13;100.00;99486.47;4832723;29;20106;-75
2023/12/01 07:43:06;;;;;;;0.10;0.10;;;;;;;-3.01;100.00;99507.13;4841353;29;20525;-75
2023/12/01 07:45:33;;;;;;;0.00;0.00;;;;;;;-3.12;100.00;99483.59;4851657;29;20030;-75
2023/12/01 07:48:01;;;;;;;0.00;0.00;;;;;;;-2.97;100.00;99496.00;4857857;29;20388;-76
2023/12/01 07:50:29;;;;;;;0.05;0.05;;;;;;;-2.95;100.00;99493.94;4836269;29;20060;-74
2023/12/01 07:52:57;;;;;;;0.00;0.00;;;;;;;-2.83;100.00;99497.72;4840835;29;20033;-76
2023/12/01 07:55:23;;;;;;;0.10;0.10;;;;;;;-2.81;100.00;99479.59;4851667;29;20395;-75
2023/12/01 07:57:49;;;;;;;0.10;0.10;;;;;;;-2.62;100.00;99510.09;4852232;29;20033;-74
2023/12/01 08:00:14;;;;;;;0.10;0.10;;;;;;;-2.73;100.00;99487.44;4845669;29;20044;-73
2023/12/01 08:02:44;;;;;;;0.10;0.10;;;;;;;-2.61;100.00;99495.69;4839661;29;20042;-76
2023/12/01 08:05:13;;;;;;;0.00;0.00;;;;;;;-2.42;100.00;99509.31;4860339;29;20029;-76
2023/12/01 08:07:43;;;;;;;0.10;0.10;;;;;;;-2.22;100.00;99525.41;4834907;29;20055;-77
2023/12/01 08:10:14;;;;;;;0.10;0.10;;;;;;;-2.18;100.00;99515.94;4855852;29;20120;-78
2023/12/01 08:12:44;;;;;;;0.10;0.10;;;;;;;-2.07;100.00;99517.19;4853703;29;20029;-77
2023/12/01 08:15:10;;;;;;;0.10;0.10;;;;;;;-2.00;100.00;99512.66;4834649;29;20042;-77
2023/12/01 08:17:37;;;;;;;0.00;0.00;;;;;;;-2.11;100.00;99473.91;4834853;29;20090;-77
2023/12/01 08:20:08;;;;;;;0.00;0.00;;;;;;;-1.73;100.00;99532.22;4859403;29;20041;-78
2023/12/01 08:22:37;;;;;;;0.00;0.00;;;;;;;-1.81;100.00;99502.94;4841597;29;20045;-75
2023/12/01 08:25:04;;;;;;;0.00;0.00;;;;;;;-1.74;100.00;99511.81;4850853;29;20395;-76
2023/12/01 08:27:29;;;;;;;0.00;0.00;;;;;;;-1.67;100.00;99509.94;4850051;29;20029;-75
2023/12/01 08:30:02;;;;;;;0.00;0.00;;;;;;;-1.44;100.00;99530.13;4829988;29;20476;-77
2023/12/01 08:32:31;;;;;;;0.10;0.10;;;;;;;-1.51;100.00;99507.88;4842037;29;20388;-78
2023/12/01 08:34:56;;;;;;;0.10;0.10;;;;;;;-1.24;100.00;99535.47;4844298;29;20029;-76
2023/12/01 08:37:22;;;;;;;0.00;0.00;;;;;;;-1.15;100.00;99526.13;4871046;29;20391;-74
2023/12/01 08:39:47;;;;;;;0.00;0.00;;;;;;;-1.04;100.00;99538.06;4836164;29;20051;-77
2023/12/01 08:42:13;;;;;;;0.00;0.00;;;;;;;-0.97;100.00;99554.97;4815252;29;20025;-74
2023/12/01 08:44:39;;;;;;;0.00;0.00;;;;;;;-0.93;100.00;99556.22;4864024;29;20124;-74
2023/12/01 08:47:04;;;;;;;0.00;0.00;;;;;;;-0.86;100.00;99561.56;4857295;29;20032;-75
2023/12/01 08:49:30;;;;;;;0.05;0.05;;;;;;;-0.79;100.00;99561.53;4846736;29;20041;-74
2023/12/01 08:51:55;;;;;;;0.10;0.10;;;;;;;-0.77;100.00;99554.91;4858528;29;20037;-74
2023/12/01 08:54:27;;;;;;;0.10;0.10;;;;;;;-0.69;100.00;99556.50;4832487;29;20065;-77
2023/12/01 08:56:58;;;;;;;0.10;0.10;;;;;;;-0.92;100.00;99509.53;4839716;29;20046;-75
2023/12/01 08:59:26;;;;;;;0.10;0.10;;;;;;;-0.55;100.00;99566.16;4826465;29;20033;-75
2023/12/01 09:01:52;;;;;;;0.00;0.00;;;;;;;-0.48;100.00;99563.47;4826462;29;20044;-76
2023/12/01 09:04:17;;;;;;;0.10;0.10;;;;;;;-0.47;100.00;99548.16;4830268;29;20045;-75
2023/12/01 09:06:43;;;;;;;0.10;0.10;;;;;;;-0.38;100.00;99560.28;4830905;29;20108;-79
2023/12/01 09:09:08;;;;;;;0.10;0.10;;;;;;;-0.25;100.00;99557.53;4841360;29;20101;-76
2023/12/01 09:11:44;;;;;;;0.10;0.10;;;;;;;-0.17;100.00;99563.69;4844482;29;20060;-75
2023/12/01 09:14:09;;;;;;;0.00;0.00;;;;;;;-0.24;100.00;99550.28;4849068;29;20033;-75
2023/12/01 09:16:34;;;;;;;0.00;0.00;;;;;;;-0.27;100.00;99538.09;4866207;29;20100;-77
2023/12/01 09:19:00;;;;;;;0.00;0.00;;;;;;;-0.05;100.00;99567.31;4840670;29;20061;-75
2023/12/01 09:21:25;;;;;;;0.10;0.10;;;;;;;0.07;100.00;99570.94;4864086;29;20033;-76
2023/12/01 09:23:53;;;;;;;0.00;0.00;;;;;;;0.20;100.00;99569.22;4866647;29;20120;-73
2023/12/01 09:26:19;;;;;;;0.00;0.00;;;;;;;0.16;100.00;99552.69;4835437;29;20081;-73
2023/12/01 09:28:44;;;;;;;0.10;0.10;;;;;;;0.20;100.00;99566.53;4843047;29;20032;-74
2023/12/01 09:31:11;;;;;;;0.10;0.10;;;;;;;0.25;100.00;99574.75;4865687;29;20113;-75
2023/12/01 09:33:37;;;;;;;0.00;0.00;;;;;;;0.26;100.00;99576.41;4862840;29;20036;-75
2023/12/01 09:36:04;;;;;;;0.00;0.00;;;;;;;0.31;100.00;99587.34;4858845;29;20057;-74
2023/12/01 09:38:30;;;;;;;0.00;0.00;;;;;;;0.38;100.00;99588.13;4843239;29;20037;-74
2023/12/01 09:40:56;;;;;;;0.00;0.00;;;;;;;0.45;100.00;99588.88;4853519;29;20444;-74
2023/12/01 09:43:23;;;;;;;0.10;0.10;;;;;;;0.50;100.00;99596.28;4856790;29;20033;-74
2023/12/01 09:45:51;;;;;;;0.00;0.00;;;;;;;0.56;100.00;99586.53;4862873;29;20139;-75
2023/12/01 09:48:19;;;;;;;0.10;0.10;;;;;;;0.65;100.00;99595.94;4846383;29;20097;-74
2023/12/01 09:50:45;;;;;;;0.08;0.08;;;;;;;0.66;100.00;99586.84;4859568;29;20036;-75
2023/12/01 09:53:11;;;;;;;0.00;0.00;;;;;;;0.68;100.00;99580.16;4844293;29;20089;-75
2023/12/01 09:55:36;;;;;;;0.10;0.10;;;;;;;0.81;99.50;99592.69;4835632;29;20029;-75
2023/12/01 09:58:02;;;;;;;0.00;0.00;;;;;;;0.72;98.87;99588.63;4814228;29;20112;-75
2023/12/01 10:00:27;;;;;;;0.10;0.10;;;;;;;0.80;98.86;99601.78;4832686;29;20021;-74
2023/12/01 10:02:52;;;;;;;0.10;0.10;;;;;;;0.82;98.13;99591.63;4836263;29;20048;-75
2023/12/01 10:05:18;;;;;;;0.00;0.00;;;;;;;0.97;97.98;99602.03;4832446;29;21204;-74
2023/12/01 10:07:45;;;;;;;0.10;0.10;;;;;;;1.15;97.45;99593.13;4824199;29;20454;-73
2023/12/01 10:10:21;;;;;;;0.10;0.10;;;;;;;1.35;96.41;99608.25;4867417;29;20510;-73
2023/12/01 10:12:58;;;;;;;0.00;0.00;;;;;;;1.36;95.32;99599.97;4831409;29;20022;-75
2023/12/01 10:15:27;;;;;;;0.00;0.00;;;;;;;1.42;94.74;99609.00;4860313;29;20097;-74
2023/12/01 10:18:06;;;;;;;0.10;0.10;;;;;;;1.49;95.34;99607.06;4831344;29;20037;-75
2023/12/01 10:20:32;;;;;;;0.10;0.10;;;;;;;1.69;94.17;99614.06;4834784;29;20066;-74
2023/12/01 10:22:57;;;;;;;0.10;0.10;;;;;;;1.82;93.18;99613.88;4860259;29;20028;-74
2023/12/01 10:25:23;;;;;;;0.10;0.10;;;;;;;1.97;92.43;99618.88;4829271;29;20037;-75
2023/12/01 10:27:57;;;;;;;0.10;0.10;;;;;;;2.17;92.31;99615.88;4827684;29;20057;-75
2023/12/01 10:30:25;;;;;;;0.00;0.00;;;;;;;2.34;90.78;99623.31;4841776;29;20608;-75
2023/12/01 10:32:53;;;;;;;0.10;0.10;;;;;;;2.26;90.59;99603.72;4863488;29;20037;-75
2023/12/01 10:35:18;;;;;;;0.00;0.00;;;;;;;2.34;89.39;99626.03;4873180;29;20061;-74
2023/12/01 10:37:46;;;;;;;0.00;0.00;;;;;;;2.54;89.92;99625.69;4864385;29;20033;-74
2023/12/01 10:40:13;;;;;;;0.10;0.10;;;;;;;2.94;89.10;99623.13;4842541;29;20617;-75
2023/12/01 10:42:40;;;;;;;0.00;0.00;;;;;;;3.41;87.65;99616.84;4842638;29;20033;-75
2023/12/01 10:45:06;;;;;;;0.00;0.00;;;;;;;3.89;85.06;99624.81;4816629;29;20045;-75
2023/12/01 10:47:33;;;;;;;0.00;0.00;;;;;;;3.97;82.93;99622.56;4842997;29;20616;-76
2023/12/01 10:50:02;;;;;;;0.00;0.00;;;;;;;3.90;82.29;99616.47;4864797;29;20029;-74
2023/12/01 10:52:30;;;;;;;0.00;0.00;;;;;;;3.93;81.96;99588.94;4864916;29;20400;-74
2023/12/01 10:54:55;;;;;;;0.10;0.10;;;;;;;4.45;80.61;99616.88;4865843;29;20029;-76
2023/12/01 10:57:35;;;;;;;0.00;0.00;;;;;;;6.45;79.99;99618.59;4847284;29;20052;-72
2023/12/01 11:00:06;;;;;;;0.00;0.00;;;;;;;7.97;68.29;99615.38;4867559;29;20040;-75
2023/12/01 11:02:37;;;;;;;0.00;0.00;;;;;;;7.13;66.38;99618.84;4834357;29;20469;-76
2023/12/01 11:05:03;;;;;;;0.00;0.00;;;;;;;6.55;68.21;99615.16;4862994;29;20033;-76
2023/12/01 11:07:47;;;;;;;0.00;0.00;;;;;;;6.85;68.63;99625.47;4863509;29;20049;-75
2023/12/01 11:10:45;;;;;;;0.00;0.00;;;;;;;6.14;68.84;99620.22;4865441;29;20037;-77
2023/12/01 11:13:43;;;;;;;0.00;0.00;;;;;;;5.44;71.08;99628.09;4832686;29;20037;-76
2023/12/01 11:16:13;;;;;;;0.00;0.00;;;;;;;5.14;71.72;99602.19;4861542;29;20032;-76
2023/12/01 11:18:42;;;;;;;0.00;0.00;;;;;;;5.02;71.33;99592.31;4860426;29;20112;-75
2023/12/01 11:21:08;;;;;;;0.00;0.00;;;;;;;7.64;72.31;99604.66;4870242;29;20160;-76
2023/12/01 11:23:36;;;;;;;0.00;0.00;;;;;;;9.38;61.83;99599.53;4820426;29;20028;-76
2023/12/01 11:26:10;;;;;;;0.00;0.00;;;;;;;8.94;60.80;99602.94;4866990;29;20500;-76
2023/12/01 11:28:45;;;;;;;0.10;0.10;;;;;;;8.12;61.18;99601.81;4857255;29;20018;-77